San Antonio, TX (78247)

12:14 PM CDT on May 22, 2015 (GMT -0500)
Longs Creek | | Change Station
CLOSE
Current Station
Personal Weather Station
Location: San Antonio, TX
Elevation: 951 ft
Nearby Weather Stations

Elev 951 ft 29.59 °N, 98.41 °W | Updated 1 minute ago

Overcast
Overcast
70.9 °F
Feels Like 70.9 °F
N
0.0
Wind Variable Wind from SE
Gusts 4.0 mph

Today
High -- | Low -- °F
--% Chance of Precip.
Yesterday
High -- | Low -- °F
Precip. -- in
6:37 AM 8:23 PM
Waxing Crescent, 22% visible
Pressure 30.04 in
Visibility 4.0 miles
Clouds Overcast 600 ft
Dew Point 70 °F
Humidity 98%
Rainfall 0.04 in
Snow Depth Not available.
UV 3 out of 12
Pollen 2.70 out of 12
Air Quality Not available.
Flu Activity Sporadic
METAR KSAT 221651Z 11009KT 4SM BR OVC006 23/21 A3009 RMK AO2 SLP173 T02280206

More Conditions Fewer Conditions

Pressure 30.04 in
Visibility 4.0 miles
Clouds Overcast 600 ft
Dew Point 70 °F
Humidity 98%
Rainfall 0.04 in
Snow Depth Not available.
UV 3 out of 12
Pollen 2.70 out of 12
Air Quality Not available.
Flu Activity Sporadic
METAR KSAT 221651Z 11009KT 4SM BR OVC006 23/21 A3009 RMK AO2 SLP173 T02280206

More Conditions Fewer Conditions

10-Day Weather Forecast

Almanac

Astronomy

May. 22, 2015 Rise Set
Actual Time
Civil Twilight
Nautical Twilight
Astronomical Twilight
Moon
Length of Visible Light
Length of Day
Tomorrow will be .
, % of the Moon is Illuminated

Today's Extremes

State Highs State Lows

Community

WunderPhotos

Upload Photos

1,823,267 photos uploaded!

WunderBlogs® & News

Nearby

Air Quality

  Air Quality AQ Index Pollutant
Not available.

Snow Depth

Station Depth Elevation

Earthquake Activity

City Distance Mag. Time & Date
Minimum magnitude displayed is 2.5.

Coastal Water Temperatures

Place Temperature

Stations

Nearby Weather Stations

Station Location Temp. Windchill Dew Point Humidity Wind Precip. Elev Updated Type